sensor_id;sensor_type;location;lat;lon;timestamp;temperature;humidity
22418;DHT22;11376;50.932;4.442;2023-02-15T00:02:13;4.80;99.90
22418;DHT22;11376;50.932;4.442;2023-02-15T00:04:38;4.80;99.90
22418;DHT22;11376;50.932;4.442;2023-02-15T00:07:17;4.80;99.90
22418;DHT22;11376;50.932;4.442;2023-02-15T00:09:47;4.70;99.90
22418;DHT22;11376;50.932;4.442;2023-02-15T00:12:14;4.70;99.90
22418;DHT22;11376;50.932;4.442;2023-02-15T00:14:40;4.70;99.90
22418;DHT22;11376;50.932;4.442;2023-02-15T00:17:05;4.70;99.90
22418;DHT22;11376;50.932;4.442;2023-02-15T00:19:31;4.60;99.90
22418;DHT22;11376;50.932;4.442;2023-02-15T00:21:57;4.60;99.90
22418;DHT22;11376;50.932;4.442;2023-02-15T00:24:23;4.50;99.90
22418;DHT22;11376;50.932;4.442;2023-02-15T00:26:48;4.50;99.90
22418;DHT22;11376;50.932;4.442;2023-02-15T00:29:16;4.40;99.90
22418;DHT22;11376;50.932;4.442;2023-02-15T00:31:42;4.40;99.90
22418;DHT22;11376;50.932;4.442;2023-02-15T00:36:41;4.40;99.90
22418;DHT22;11376;50.932;4.442;2023-02-15T00:39:06;4.40;99.90
22418;DHT22;11376;50.932;4.442;2023-02-15T00:41:33;4.50;99.90
22418;DHT22;11376;50.932;4.442;2023-02-15T00:43:58;4.50;99.90
22418;DHT22;11376;50.932;4.442;2023-02-15T00:46:24;4.50;99.90
22418;DHT22;11376;50.932;4.442;2023-02-15T00:48:50;4.30;99.90
22418;DHT22;11376;50.932;4.442;2023-02-15T00:51:16;4.30;99.90
22418;DHT22;11376;50.932;4.442;2023-02-15T00:53:43;4.30;99.90
22418;DHT22;11376;50.932;4.442;2023-02-15T00:56:09;4.30;99.90
22418;DHT22;11376;50.932;4.442;2023-02-15T00:58:35;4.20;99.90
22418;DHT22;11376;50.932;4.442;2023-02-15T01:01:06;4.20;99.90
22418;DHT22;11376;50.932;4.442;2023-02-15T01:03:33;4.20;99.90
22418;DHT22;11376;50.932;4.442;2023-02-15T01:05:59;4.20;99.90
22418;DHT22;11376;50.932;4.442;2023-02-15T01:08:25;4.10;99.90
22418;DHT22;11376;50.932;4.442;2023-02-15T01:10:51;4.10;99.90
22418;DHT22;11376;50.932;4.442;2023-02-15T01:13:17;4.10;99.90
22418;DHT22;11376;50.932;4.442;2023-02-15T01:15:43;4.10;99.90
22418;DHT22;11376;50.932;4.442;2023-02-15T01:18:10;4.10;99.90
22418;DHT22;11376;50.932;4.442;2023-02-15T01:20:37;4.10;99.90
22418;DHT22;11376;50.932;4.442;2023-02-15T01:23:05;4.00;99.90
22418;DHT22;11376;50.932;4.442;2023-02-15T01:25:33;4.00;99.90
22418;DHT22;11376;50.932;4.442;2023-02-15T01:27:59;4.00;99.90
22418;DHT22;11376;50.932;4.442;2023-02-15T01:30:25;4.10;99.90
22418;DHT22;11376;50.932;4.442;2023-02-15T01:32:50;3.90;99.90
22418;DHT22;11376;50.932;4.442;2023-02-15T01:35:16;3.90;99.90
22418;DHT22;11376;50.932;4.442;2023-02-15T01:37:42;3.90;99.90
22418;DHT22;11376;50.932;4.442;2023-02-15T01:40:13;3.80;99.90
22418;DHT22;11376;50.932;4.442;2023-02-15T01:42:39;3.80;99.90
22418;DHT22;11376;50.932;4.442;2023-02-15T01:45:30;3.80;99.90
22418;DHT22;11376;50.932;4.442;2023-02-15T01:50:44;3.70;99.90
22418;DHT22;11376;50.932;4.442;2023-02-15T01:53:18;3.70;99.90
22418;DHT22;11376;50.932;4.442;2023-02-15T01:55:59;3.80;99.90
22418;DHT22;11376;50.932;4.442;2023-02-15T01:58:27;3.80;99.90
22418;DHT22;11376;50.932;4.442;2023-02-15T02:00:55;3.60;99.90
22418;DHT22;11376;50.932;4.442;2023-02-15T02:06:17;3.50;99.90
22418;DHT22;11376;50.932;4.442;2023-02-15T02:08:44;3.40;99.90
22418;DHT22;11376;50.932;4.442;2023-02-15T02:11:11;3.50;99.90
22418;DHT22;11376;50.932;4.442;2023-02-15T02:13:37;3.50;99.90
22418;DHT22;11376;50.932;4.442;2023-02-15T02:44:16;2.50;99.90
22418;DHT22;11376;50.932;4.442;2023-02-15T02:46:53;2.50;99.90
22418;DHT22;11376;50.932;4.442;2023-02-15T02:49:40;2.60;99.90
22418;DHT22;11376;50.932;4.442;2023-02-15T02:55:00;2.70;99.90
22418;DHT22;11376;50.932;4.442;2023-02-15T02:57:27;2.70;99.90
22418;DHT22;11376;50.932;4.442;2023-02-15T02:59:55;2.70;99.90
22418;DHT22;11376;50.932;4.442;2023-02-15T03:02:37;2.50;99.90
22418;DHT22;11376;50.932;4.442;2023-02-15T03:05:08;2.30;99.90
22418;DHT22;11376;50.932;4.442;2023-02-15T03:07:36;2.10;99.90
22418;DHT22;11376;50.932;4.442;2023-02-15T03:10:05;2.20;99.90
22418;DHT22;11376;50.932;4.442;2023-02-15T03:12:36;2.30;99.90
22418;DHT22;11376;50.932;4.442;2023-02-15T03:15:10;2.40;99.90
22418;DHT22;11376;50.932;4.442;2023-02-15T03:17:43;2.50;99.90
22418;DHT22;11376;50.932;4.442;2023-02-15T03:20:27;2.50;99.90
22418;DHT22;11376;50.932;4.442;2023-02-15T03:23:03;2.60;99.90
22418;DHT22;11376;50.932;4.442;2023-02-15T03:25:36;2.50;99.90
22418;DHT22;11376;50.932;4.442;2023-02-15T03:28:06;2.60;99.90
22418;DHT22;11376;50.932;4.442;2023-02-15T03:30:34;2.60;99.90
22418;DHT22;11376;50.932;4.442;2023-02-15T03:33:03;2.60;99.90
22418;DHT22;11376;50.932;4.442;2023-02-15T03:35:42;2.60;99.90
22418;DHT22;11376;50.932;4.442;2023-02-15T03:38:10;2.60;99.90
22418;DHT22;11376;50.932;4.442;2023-02-15T03:40:41;2.70;99.90
22418;DHT22;11376;50.932;4.442;2023-02-15T03:46:12;2.40;99.90
22418;DHT22;11376;50.932;4.442;2023-02-15T03:48:44;2.30;99.90
22418;DHT22;11376;50.932;4.442;2023-02-15T03:51:19;2.30;99.90
22418;DHT22;11376;50.932;4.442;2023-02-15T03:56:28;2.40;99.90
22418;DHT22;11376;50.932;4.442;2023-02-15T03:58:54;2.40;99.90
22418;DHT22;11376;50.932;4.442;2023-02-15T04:01:40;2.40;99.90
22418;DHT22;11376;50.932;4.442;2023-02-15T04:04:32;2.40;99.90
22418;DHT22;11376;50.932;4.442;2023-02-15T04:06:58;2.40;99.90
22418;DHT22;11376;50.932;4.442;2023-02-15T04:09:24;2.40;99.90
22418;DHT22;11376;50.932;4.442;2023-02-15T04:12:08;2.40;99.90
22418;DHT22;11376;50.932;4.442;2023-02-15T04:14:34;2.40;99.90
22418;DHT22;11376;50.932;4.442;2023-02-15T04:17:18;2.40;99.90
22418;DHT22;11376;50.932;4.442;2023-02-15T04:19:43;2.40;99.90
22418;DHT22;11376;50.932;4.442;2023-02-15T04:22:27;2.40;99.90
22418;DHT22;11376;50.932;4.442;2023-02-15T04:25:11;2.50;99.90
22418;DHT22;11376;50.932;4.442;2023-02-15T04:27:48;2.50;99.90
22418;DHT22;11376;50.932;4.442;2023-02-15T04:30:15;2.50;99.90
22418;DHT22;11376;50.932;4.442;2023-02-15T04:32:41;2.60;99.90
22418;DHT22;11376;50.932;4.442;2023-02-15T04:35:08;2.60;99.90
22418;DHT22;11376;50.932;4.442;2023-02-15T04:37:34;2.70;99.90
22418;DHT22;11376;50.932;4.442;2023-02-15T04:40:00;2.70;99.90
22418;DHT22;11376;50.932;4.442;2023-02-15T04:42:26;2.70;99.90
22418;DHT22;11376;50.932;4.442;2023-02-15T04:44:53;2.70;99.90
22418;DHT22;11376;50.932;4.442;2023-02-15T04:47:19;2.80;99.90
22418;DHT22;11376;50.932;4.442;2023-02-15T04:49:44;2.80;99.90
22418;DHT22;11376;50.932;4.442;2023-02-15T04:52:10;2.80;99.90
22418;DHT22;11376;50.932;4.442;2023-02-15T04:54:35;2.90;99.90
22418;DHT22;11376;50.932;4.442;2023-02-15T04:57:01;2.90;99.90
22418;DHT22;11376;50.932;4.442;2023-02-15T04:59:27;2.90;99.90
22418;DHT22;11376;50.932;4.442;2023-02-15T05:01:52;2.90;99.90
22418;DHT22;11376;50.932;4.442;2023-02-15T05:04:18;2.90;99.90
22418;DHT22;11376;50.932;4.442;2023-02-15T05:06:44;3.00;99.90
22418;DHT22;11376;50.932;4.442;2023-02-15T05:09:11;3.00;99.90
22418;DHT22;11376;50.932;4.442;2023-02-15T05:11:37;2.90;99.90
22418;DHT22;11376;50.932;4.442;2023-02-15T05:14:03;2.90;99.90
22418;DHT22;11376;50.932;4.442;2023-02-15T05:16:29;2.90;99.90
22418;DHT22;11376;50.932;4.442;2023-02-15T05:18:54;2.80;99.90
22418;DHT22;11376;50.932;4.442;2023-02-15T05:21:20;2.80;99.90
22418;DHT22;11376;50.932;4.442;2023-02-15T05:23:45;2.80;99.90
22418;DHT22;11376;50.932;4.442;2023-02-15T05:26:17;2.80;99.90
22418;DHT22;11376;50.932;4.442;2023-02-15T05:29:02;2.70;99.90
22418;DHT22;11376;50.932;4.442;2023-02-15T05:31:28;2.60;99.90
22418;DHT22;11376;50.932;4.442;2023-02-15T05:33:53;2.50;99.90
22418;DHT22;11376;50.932;4.442;2023-02-15T05:36:19;2.60;99.90
22418;DHT22;11376;50.932;4.442;2023-02-15T05:38:44;2.60;99.90
22418;DHT22;11376;50.932;4.442;2023-02-15T05:41:11;2.60;99.90
22418;DHT22;11376;50.932;4.442;2023-02-15T05:43:37;2.70;99.90
22418;DHT22;11376;50.932;4.442;2023-02-15T05:46:03;2.70;99.90
22418;DHT22;11376;50.932;4.442;2023-02-15T05:48:29;2.80;99.90
22418;DHT22;11376;50.932;4.442;2023-02-15T05:51:09;2.80;99.90
22418;DHT22;11376;50.932;4.442;2023-02-15T05:53:37;2.90;99.90
22418;DHT22;11376;50.932;4.442;2023-02-15T05:56:04;2.80;99.90
22418;DHT22;11376;50.932;4.442;2023-02-15T05:58:33;2.80;99.90
22418;DHT22;11376;50.932;4.442;2023-02-15T06:00:59;2.80;99.90
22418;DHT22;11376;50.932;4.442;2023-02-15T06:03:24;2.80;99.90
22418;DHT22;11376;50.932;4.442;2023-02-15T06:05:51;2.80;99.90
22418;DHT22;11376;50.932;4.442;2023-02-15T06:08:17;2.80;99.90
22418;DHT22;11376;50.932;4.442;2023-02-15T06:10:44;2.80;99.90
22418;DHT22;11376;50.932;4.442;2023-02-15T06:13:10;2.70;99.90
22418;DHT22;11376;50.932;4.442;2023-02-15T06:15:36;2.70;99.90
22418;DHT22;11376;50.932;4.442;2023-02-15T06:18:01;2.70;99.90
22418;DHT22;11376;50.932;4.442;2023-02-15T06:20:27;2.70;99.90
22418;DHT22;11376;50.932;4.442;2023-02-15T06:22:53;2.70;99.90
22418;DHT22;11376;50.932;4.442;2023-02-15T06:25:18;2.70;99.90
22418;DHT22;11376;50.932;4.442;2023-02-15T06:27:44;2.70;99.90
22418;DHT22;11376;50.932;4.442;2023-02-15T06:30:11;2.60;99.90
22418;DHT22;11376;50.932;4.442;2023-02-15T06:32:37;2.60;99.90
22418;DHT22;11376;50.932;4.442;2023-02-15T06:35:02;2.60;99.90
22418;DHT22;11376;50.932;4.442;2023-02-15T06:37:28;2.60;99.90
22418;DHT22;11376;50.932;4.442;2023-02-15T06:39:54;2.60;99.90
22418;DHT22;11376;50.932;4.442;2023-02-15T06:42:21;2.60;99.90
22418;DHT22;11376;50.932;4.442;2023-02-15T06:44:46;2.60;99.90
22418;DHT22;11376;50.932;4.442;2023-02-15T06:47:12;2.60;99.90
22418;DHT22;11376;50.932;4.442;2023-02-15T06:49:37;2.60;99.90
22418;DHT22;11376;50.932;4.442;2023-02-15T06:52:03;2.60;99.90
22418;DHT22;11376;50.932;4.442;2023-02-15T06:54:29;2.60;99.90
22418;DHT22;11376;50.932;4.442;2023-02-15T06:56:55;2.60;99.90
22418;DHT22;11376;50.932;4.442;2023-02-15T06:59:20;2.60;99.90
22418;DHT22;11376;50.932;4.442;2023-02-15T07:01:46;2.60;99.90
22418;DHT22;11376;50.932;4.442;2023-02-15T07:04:12;2.60;99.90
22418;DHT22;11376;50.932;4.442;2023-02-15T07:06:37;2.70;99.90
22418;DHT22;11376;50.932;4.442;2023-02-15T07:09:03;2.60;99.90
22418;DHT22;11376;50.932;4.442;2023-02-15T07:11:30;2.60;99.90
22418;DHT22;11376;50.932;4.442;2023-02-15T07:14:14;2.70;99.90
22418;DHT22;11376;50.932;4.442;2023-02-15T07:16:40;2.70;99.90
22418;DHT22;11376;50.932;4.442;2023-02-15T07:19:05;2.80;99.90
22418;DHT22;11376;50.932;4.442;2023-02-15T07:21:33;2.80;99.90
22418;DHT22;11376;50.932;4.442;2023-02-15T07:23:58;2.90;99.90
22418;DHT22;11376;50.932;4.442;2023-02-15T07:26:25;3.00;99.90
22418;DHT22;11376;50.932;4.442;2023-02-15T07:28:50;3.00;99.90
22418;DHT22;11376;50.932;4.442;2023-02-15T07:31:16;3.10;99.90
22418;DHT22;11376;50.932;4.442;2023-02-15T07:33:42;3.20;99.90
22418;DHT22;11376;50.932;4.442;2023-02-15T07:36:08;3.30;99.90
22418;DHT22;11376;50.932;4.442;2023-02-15T07:38:38;3.50;99.90
22418;DHT22;11376;50.932;4.442;2023-02-15T07:41:10;3.50;99.90
22418;DHT22;11376;50.932;4.442;2023-02-15T07:43:39;3.60;99.90
22418;DHT22;11376;50.932;4.442;2023-02-15T07:46:08;3.50;99.90
22418;DHT22;11376;50.932;4.442;2023-02-15T07:48:35;3.40;99.90
22418;DHT22;11376;50.932;4.442;2023-02-15T07:51:03;3.40;99.90
22418;DHT22;11376;50.932;4.442;2023-02-15T07:53:28;3.40;99.90
22418;DHT22;11376;50.932;4.442;2023-02-15T07:55:57;3.60;99.90
22418;DHT22;11376;50.932;4.442;2023-02-15T07:58:23;3.70;99.90
22418;DHT22;11376;50.932;4.442;2023-02-15T08:01:08;3.80;99.90
22418;DHT22;11376;50.932;4.442;2023-02-15T08:03:34;3.90;99.90
22418;DHT22;11376;50.932;4.442;2023-02-15T08:05:59;4.00;99.90
22418;DHT22;11376;50.932;4.442;2023-02-15T08:08:26;4.10;99.90
22418;DHT22;11376;50.932;4.442;2023-02-15T08:11:06;4.10;99.90
22418;DHT22;11376;50.932;4.442;2023-02-15T08:16:35;4.30;99.90
22418;DHT22;11376;50.932;4.442;2023-02-15T08:19:07;4.40;99.90
22418;DHT22;11376;50.932;4.442;2023-02-15T08:21:34;4.70;99.90
22418;DHT22;11376;50.932;4.442;2023-02-15T08:24:00;4.70;99.90
22418;DHT22;11376;50.932;4.442;2023-02-15T08:26:27;4.70;99.90
22418;DHT22;11376;50.932;4.442;2023-02-15T08:28:53;4.80;99.90
22418;DHT22;11376;50.932;4.442;2023-02-15T08:31:19;4.90;99.90
22418;DHT22;11376;50.932;4.442;2023-02-15T08:33:46;5.00;99.90
22418;DHT22;11376;50.932;4.442;2023-02-15T08:36:16;5.10;99.90
22418;DHT22;11376;50.932;4.442;2023-02-15T08:38:42;5.30;99.90
22418;DHT22;11376;50.932;4.442;2023-02-15T08:43:38;5.80;99.90
22418;DHT22;11376;50.932;4.442;2023-02-15T08:46:05;6.10;99.90
22418;DHT22;11376;50.932;4.442;2023-02-15T08:48:30;6.30;99.90
22418;DHT22;11376;50.932;4.442;2023-02-15T08:50:56;6.60;99.90
22418;DHT22;11376;50.932;4.442;2023-02-15T08:53:22;6.70;99.90
22418;DHT22;11376;50.932;4.442;2023-02-15T08:55:57;6.80;99.90
22418;DHT22;11376;50.932;4.442;2023-02-15T08:58:23;6.90;99.90
22418;DHT22;11376;50.932;4.442;2023-02-15T09:00:50;6.80;99.90
22418;DHT22;11376;50.932;4.442;2023-02-15T09:03:15;6.80;99.90
22418;DHT22;11376;50.932;4.442;2023-02-15T09:05:41;7.00;99.90
22418;DHT22;11376;50.932;4.442;2023-02-15T09:08:07;7.00;99.90
22418;DHT22;11376;50.932;4.442;2023-02-15T09:10:33;7.10;99.90
22418;DHT22;11376;50.932;4.442;2023-02-15T09:12:58;7.30;99.90
22418;DHT22;11376;50.932;4.442;2023-02-15T09:15:24;7.50;99.90
22418;DHT22;11376;50.932;4.442;2023-02-15T09:17:49;7.60;99.90
22418;DHT22;11376;50.932;4.442;2023-02-15T09:20:15;7.60;99.90
22418;DHT22;11376;50.932;4.442;2023-02-15T09:22:41;7.70;99.90
22418;DHT22;11376;50.932;4.442;2023-02-15T09:25:06;7.80;99.90
22418;DHT22;11376;50.932;4.442;2023-02-15T09:27:32;7.90;99.90
22418;DHT22;11376;50.932;4.442;2023-02-15T09:29:58;8.00;99.90
22418;DHT22;11376;50.932;4.442;2023-02-15T09:32:23;8.20;99.90
22418;DHT22;11376;50.932;4.442;2023-02-15T09:34:49;8.40;99.90
22418;DHT22;11376;50.932;4.442;2023-02-15T09:37:14;8.50;99.90
22418;DHT22;11376;50.932;4.442;2023-02-15T09:39:42;8.70;99.90
22418;DHT22;11376;50.932;4.442;2023-02-15T09:42:36;8.80;99.90
22418;DHT22;11376;50.932;4.442;2023-02-15T09:48:14;9.10;99.90
22418;DHT22;11376;50.932;4.442;2023-02-15T09:53:53;9.50;99.90
22418;DHT22;11376;50.932;4.442;2023-02-15T09:56:33;9.70;99.90
22418;DHT22;11376;50.932;4.442;2023-02-15T10:02:23;10.20;99.90
22418;DHT22;11376;50.932;4.442;2023-02-15T10:05:14;10.50;99.90
22418;DHT22;11376;50.932;4.442;2023-02-15T10:24:39;10.80;99.90
22418;DHT22;11376;50.932;4.442;2023-02-15T10:27:18;10.90;99.90
22418;DHT22;11376;50.932;4.442;2023-02-15T10:30:26;11.00;99.90
22418;DHT22;11376;50.932;4.442;2023-02-15T10:33:04;11.00;99.90
22418;DHT22;11376;50.932;4.442;2023-02-15T10:38:24;11.80;99.90
22418;DHT22;11376;50.932;4.442;2023-02-15T10:43:58;12.20;99.90
22418;DHT22;11376;50.932;4.442;2023-02-15T10:46:43;12.50;99.90
22418;DHT22;11376;50.932;4.442;2023-02-15T10:54:55;13.30;99.90
22418;DHT22;11376;50.932;4.442;2023-02-15T10:57:36;13.60;99.90
22418;DHT22;11376;50.932;4.442;2023-02-15T11:00:19;13.50;99.90
22418;DHT22;11376;50.932;4.442;2023-02-15T11:07:47;12.70;99.90
22418;DHT22;11376;50.932;4.442;2023-02-15T11:10:21;13.00;99.90
22418;DHT22;11376;50.932;4.442;2023-02-15T11:12:49;13.30;99.90
22418;DHT22;11376;50.932;4.442;2023-02-15T11:15:37;13.20;99.90
22418;DHT22;11376;50.932;4.442;2023-02-15T11:18:15;13.80;99.90
22418;DHT22;11376;50.932;4.442;2023-02-15T11:23:15;13.60;99.90
22418;DHT22;11376;50.932;4.442;2023-02-15T11:25:43;13.90;99.90
22418;DHT22;11376;50.932;4.442;2023-02-15T11:29:16;13.70;99.90
22418;DHT22;11376;50.932;4.442;2023-02-15T11:31:58;13.90;99.90
22418;DHT22;11376;50.932;4.442;2023-02-15T11:34:15;13.80;99.90
22418;DHT22;11376;50.932;4.442;2023-02-15T11:36:44;14.30;99.90
22418;DHT22;11376;50.932;4.442;2023-02-15T11:39:14;14.30;99.90
22418;DHT22;11376;50.932;4.442;2023-02-15T11:41:47;14.40;99.90
22418;DHT22;11376;50.932;4.442;2023-02-15T11:44:25;14.50;99.90
22418;DHT22;11376;50.932;4.442;2023-02-15T11:46:53;14.50;99.90
22418;DHT22;11376;50.932;4.442;2023-02-15T11:51:54;15.60;99.90
22418;DHT22;11376;50.932;4.442;2023-02-15T11:54:26;15.90;99.90
22418;DHT22;11376;50.932;4.442;2023-02-15T11:56:58;15.70;99.90
22418;DHT22;11376;50.932;4.442;2023-02-15T11:59:34;15.60;99.90
22418;DHT22;11376;50.932;4.442;2023-02-15T12:02:02;15.80;99.90
22418;DHT22;11376;50.932;4.442;2023-02-15T12:04:36;15.60;99.90
22418;DHT22;11376;50.932;4.442;2023-02-15T12:07:27;15.50;99.90
22418;DHT22;11376;50.932;4.442;2023-02-15T12:12:32;15.50;99.90
22418;DHT22;11376;50.932;4.442;2023-02-15T12:15:03;16.30;99.90
22418;DHT22;11376;50.932;4.442;2023-02-15T12:17:32;16.90;99.90
22418;DHT22;11376;50.932;4.442;2023-02-15T12:22:54;16.20;99.90
22418;DHT22;11376;50.932;4.442;2023-02-15T12:27:52;14.80;99.90
22418;DHT22;11376;50.932;4.442;2023-02-15T12:30:31;14.20;99.90
22418;DHT22;11376;50.932;4.442;2023-02-15T12:33:52;13.80;99.90
22418;DHT22;11376;50.932;4.442;2023-02-15T12:36:09;13.80;99.90
22418;DHT22;11376;50.932;4.442;2023-02-15T12:38:36;14.10;99.90
22418;DHT22;11376;50.932;4.442;2023-02-15T12:41:24;14.40;99.90
22418;DHT22;11376;50.932;4.442;2023-02-15T12:44:04;14.70;99.90
22418;DHT22;11376;50.932;4.442;2023-02-15T12:46:31;16.20;99.90
22418;DHT22;11376;50.932;4.442;2023-02-15T12:54:20;16.50;99.90
22418;DHT22;11376;50.932;4.442;2023-02-15T12:56:51;17.50;99.90
22418;DHT22;11376;50.932;4.442;2023-02-15T12:59:18;17.40;99.90
22418;DHT22;11376;50.932;4.442;2023-02-15T13:01:48;17.60;99.90
22418;DHT22;11376;50.932;4.442;2023-02-15T13:04:26;18.50;99.90
22418;DHT22;11376;50.932;4.442;2023-02-15T13:06:56;18.40;99.90
22418;DHT22;11376;50.932;4.442;2023-02-15T13:12:27;19.50;96.70
22418;DHT22;11376;50.932;4.442;2023-02-15T13:14:56;18.70;98.70
22418;DHT22;11376;50.932;4.442;2023-02-15T13:17:29;19.00;98.10
22418;DHT22;11376;50.932;4.442;2023-02-15T13:20:18;19.10;97.40
22418;DHT22;11376;50.932;4.442;2023-02-15T13:22:46;19.10;97.20
22418;DHT22;11376;50.932;4.442;2023-02-15T13:25:22;18.20;98.10
22418;DHT22;11376;50.932;4.442;2023-02-15T13:27:54;17.90;99.30
22418;DHT22;11376;50.932;4.442;2023-02-15T13:30:25;17.00;99.90
22418;DHT22;11376;50.932;4.442;2023-02-15T13:33:14;17.10;99.90
22418;DHT22;11376;50.932;4.442;2023-02-15T13:39:23;16.80;99.90
22418;DHT22;11376;50.932;4.442;2023-02-15T13:47:56;17.00;99.90
22418;DHT22;11376;50.932;4.442;2023-02-15T13:53:33;17.30;99.90
22418;DHT22;11376;50.932;4.442;2023-02-15T13:56:15;17.50;99.90
22418;DHT22;11376;50.932;4.442;2023-02-15T14:01:47;16.90;99.90
22418;DHT22;11376;50.932;4.442;2023-02-15T14:09:47;17.00;99.90
22418;DHT22;11376;50.932;4.442;2023-02-15T14:23:43;17.00;99.90
22418;DHT22;11376;50.932;4.442;2023-02-15T14:29:13;17.10;99.90
22418;DHT22;11376;50.932;4.442;2023-02-15T14:31:43;16.30;99.90
22418;DHT22;11376;50.932;4.442;2023-02-15T14:34:39;16.10;99.90
22418;DHT22;11376;50.932;4.442;2023-02-15T14:37:11;15.70;99.90
22418;DHT22;11376;50.932;4.442;2023-02-15T14:39:46;15.60;99.90
22418;DHT22;11376;50.932;4.442;2023-02-15T14:42:45;15.70;99.90
22418;DHT22;11376;50.932;4.442;2023-02-15T14:45:29;15.40;99.90
22418;DHT22;11376;50.932;4.442;2023-02-15T14:48:03;15.20;99.90
22418;DHT22;11376;50.932;4.442;2023-02-15T14:50:44;15.20;99.90
22418;DHT22;11376;50.932;4.442;2023-02-15T14:58:58;15.30;99.90
22418;DHT22;11376;50.932;4.442;2023-02-15T15:03:55;15.30;99.90
22418;DHT22;11376;50.932;4.442;2023-02-15T15:06:32;15.40;99.90
22418;DHT22;11376;50.932;4.442;2023-02-15T15:09:12;15.00;99.90
22418;DHT22;11376;50.932;4.442;2023-02-15T15:11:49;14.70;99.90
22418;DHT22;11376;50.932;4.442;2023-02-15T15:17:03;14.40;99.90
22418;DHT22;11376;50.932;4.442;2023-02-15T15:22:24;14.10;99.90
22418;DHT22;11376;50.932;4.442;2023-02-15T15:24:51;14.20;99.90
22418;DHT22;11376;50.932;4.442;2023-02-15T15:35:45;14.30;99.90
22418;DHT22;11376;50.932;4.442;2023-02-15T15:49:37;13.70;99.90
22418;DHT22;11376;50.932;4.442;2023-02-15T15:52:13;13.50;99.90
22418;DHT22;11376;50.932;4.442;2023-02-15T15:54:40;13.50;99.90
22418;DHT22;11376;50.932;4.442;2023-02-15T15:57:27;13.40;99.90
22418;DHT22;11376;50.932;4.442;2023-02-15T15:59:54;13.20;99.90
22418;DHT22;11376;50.932;4.442;2023-02-15T16:02:20;13.10;99.90
22418;DHT22;11376;50.932;4.442;2023-02-15T16:04:46;13.10;99.90
22418;DHT22;11376;50.932;4.442;2023-02-15T16:10:07;12.90;99.90
22418;DHT22;11376;50.932;4.442;2023-02-15T16:12:35;12.80;99.90
22418;DHT22;11376;50.932;4.442;2023-02-15T16:15:17;12.60;99.90
22418;DHT22;11376;50.932;4.442;2023-02-15T16:17:46;12.50;99.90
22418;DHT22;11376;50.932;4.442;2023-02-15T16:28:50;12.40;99.90
22418;DHT22;11376;50.932;4.442;2023-02-15T16:31:21;12.30;99.90
22418;DHT22;11376;50.932;4.442;2023-02-15T16:33:53;12.20;99.90
22418;DHT22;11376;50.932;4.442;2023-02-15T16:36:25;12.10;99.90
22418;DHT22;11376;50.932;4.442;2023-02-15T16:41:22;12.00;99.90
22418;DHT22;11376;50.932;4.442;2023-02-15T16:43:49;11.90;99.90
22418;DHT22;11376;50.932;4.442;2023-02-15T16:46:29;11.90;99.90
22418;DHT22;11376;50.932;4.442;2023-02-15T16:48:59;11.80;99.90
22418;DHT22;11376;50.932;4.442;2023-02-15T16:51:29;11.70;99.90
22418;DHT22;11376;50.932;4.442;2023-02-15T16:53:56;11.70;99.90
22418;DHT22;11376;50.932;4.442;2023-02-15T16:56:27;11.60;99.90
22418;DHT22;11376;50.932;4.442;2023-02-15T16:58:55;11.50;99.90
22418;DHT22;11376;50.932;4.442;2023-02-15T17:01:24;11.50;99.90
22418;DHT22;11376;50.932;4.442;2023-02-15T17:04:10;11.40;99.90
22418;DHT22;11376;50.932;4.442;2023-02-15T17:06:35;11.30;99.90
22418;DHT22;11376;50.932;4.442;2023-02-15T17:09:06;11.20;99.90
22418;DHT22;11376;50.932;4.442;2023-02-15T17:11:42;11.10;99.90
22418;DHT22;11376;50.932;4.442;2023-02-15T17:16:35;11.00;99.90
22418;DHT22;11376;50.932;4.442;2023-02-15T17:19:07;10.90;99.90
22418;DHT22;11376;50.932;4.442;2023-02-15T17:21:41;10.90;99.90
22418;DHT22;11376;50.932;4.442;2023-02-15T17:24:19;10.80;99.90
22418;DHT22;11376;50.932;4.442;2023-02-15T17:26:50;10.70;99.90
22418;DHT22;11376;50.932;4.442;2023-02-15T17:31:55;10.70;99.90
22418;DHT22;11376;50.932;4.442;2023-02-15T17:34:47;10.70;99.90
22418;DHT22;11376;50.932;4.442;2023-02-15T17:37:25;10.70;99.90
22418;DHT22;11376;50.932;4.442;2023-02-15T17:39:51;10.60;99.90
22418;DHT22;11376;50.932;4.442;2023-02-15T17:42:16;10.70;99.90
22418;DHT22;11376;50.932;4.442;2023-02-15T17:44:42;10.60;99.90
22418;DHT22;11376;50.932;4.442;2023-02-15T17:47:14;10.60;99.90
22418;DHT22;11376;50.932;4.442;2023-02-15T17:49:40;10.60;99.90
22418;DHT22;11376;50.932;4.442;2023-02-15T17:52:08;10.60;99.90
22418;DHT22;11376;50.932;4.442;2023-02-15T17:54:35;10.60;99.90
22418;DHT22;11376;50.932;4.442;2023-02-15T17:57:19;10.50;99.90
22418;DHT22;11376;50.932;4.442;2023-02-15T17:59:44;10.50;99.90
22418;DHT22;11376;50.932;4.442;2023-02-15T18:02:33;10.50;99.90
22418;DHT22;11376;50.932;4.442;2023-02-15T18:05:18;10.50;99.90
22418;DHT22;11376;50.932;4.442;2023-02-15T18:08:02;10.40;99.90
22418;DHT22;11376;50.932;4.442;2023-02-15T18:10:46;10.40;99.90
22418;DHT22;11376;50.932;4.442;2023-02-15T18:13:30;10.40;99.90
22418;DHT22;11376;50.932;4.442;2023-02-15T18:15:56;10.30;99.90
22418;DHT22;11376;50.932;4.442;2023-02-15T18:18:22;10.20;99.90
22418;DHT22;11376;50.932;4.442;2023-02-15T18:20:48;10.10;99.90
22418;DHT22;11376;50.932;4.442;2023-02-15T18:23:14;10.10;99.90
22418;DHT22;11376;50.932;4.442;2023-02-15T18:25:40;10.20;99.90
22418;DHT22;11376;50.932;4.442;2023-02-15T18:28:08;10.10;99.90
22418;DHT22;11376;50.932;4.442;2023-02-15T18:30:34;10.10;99.90
22418;DHT22;11376;50.932;4.442;2023-02-15T18:33:00;10.10;99.90
22418;DHT22;11376;50.932;4.442;2023-02-15T18:35:29;10.10;99.90
22418;DHT22;11376;50.932;4.442;2023-02-15T18:37:55;10.20;99.90
22418;DHT22;11376;50.932;4.442;2023-02-15T18:40:24;10.20;99.90
22418;DHT22;11376;50.932;4.442;2023-02-15T18:42:50;10.20;99.90
22418;DHT22;11376;50.932;4.442;2023-02-15T18:47:45;10.20;99.90
22418;DHT22;11376;50.932;4.442;2023-02-15T18:50:16;10.20;99.90
22418;DHT22;11376;50.932;4.442;2023-02-15T18:52:44;10.20;99.90
22418;DHT22;11376;50.932;4.442;2023-02-15T18:55:24;10.20;99.90
22418;DHT22;11376;50.932;4.442;2023-02-15T18:57:52;10.20;99.90
22418;DHT22;11376;50.932;4.442;2023-02-15T19:00:20;10.10;99.90
22418;DHT22;11376;50.932;4.442;2023-02-15T19:02:47;10.10;99.90
22418;DHT22;11376;50.932;4.442;2023-02-15T19:05:13;10.10;99.90
22418;DHT22;11376;50.932;4.442;2023-02-15T19:07:39;10.10;99.90
22418;DHT22;11376;50.932;4.442;2023-02-15T19:10:07;10.00;99.90
22418;DHT22;11376;50.932;4.442;2023-02-15T19:12:38;10.00;99.90
22418;DHT22;11376;50.932;4.442;2023-02-15T19:15:04;9.90;99.90
22418;DHT22;11376;50.932;4.442;2023-02-15T19:17:29;9.90;99.90
22418;DHT22;11376;50.932;4.442;2023-02-15T19:19:55;9.80;99.90
22418;DHT22;11376;50.932;4.442;2023-02-15T19:22:28;9.80;99.90
22418;DHT22;11376;50.932;4.442;2023-02-15T19:24:57;9.70;99.90
22418;DHT22;11376;50.932;4.442;2023-02-15T19:29:53;9.70;99.90